sensor_id;sensor_type;location;lat;lon;timestamp;P1;durP1;ratioP1;P2;durP2;ratioP2
52322;SDS011;38263;52.920;6.238;2023-10-09T00:01:07;13.88;;;6.05;;
52322;SDS011;38263;52.920;6.238;2023-10-09T00:03:40;11.02;;;5.22;;
52322;SDS011;38263;52.920;6.238;2023-10-09T00:06:06;14.05;;;6.38;;
52322;SDS011;38263;52.920;6.238;2023-10-09T00:08:32;13.55;;;6.07;;
52322;SDS011;38263;52.920;6.238;2023-10-09T00:11:00;15.13;;;7.45;;
52322;SDS011;38263;52.920;6.238;2023-10-09T00:13:42;12.50;;;6.93;;
52322;SDS011;38263;52.920;6.238;2023-10-09T00:16:16;16.42;;;8.40;;
52322;SDS011;38263;52.920;6.238;2023-10-09T00:18:59;14.70;;;7.32;;
52322;SDS011;38263;52.920;6.238;2023-10-09T00:21:39;16.48;;;7.80;;
52322;SDS011;38263;52.920;6.238;2023-10-09T00:24:09;16.15;;;7.88;;
52322;SDS011;38263;52.920;6.238;2023-10-09T00:26:49;14.75;;;8.02;;
52322;SDS011;38263;52.920;6.238;2023-10-09T00:29:16;22.10;;;8.00;;
52322;SDS011;38263;52.920;6.238;2023-10-09T00:31:50;17.40;;;8.60;;
52322;SDS011;38263;52.920;6.238;2023-10-09T00:34:20;22.80;;;9.15;;
52322;SDS011;38263;52.920;6.238;2023-10-09T00:36:47;19.33;;;8.60;;
52322;SDS011;38263;52.920;6.238;2023-10-09T00:39:19;17.45;;;8.73;;
52322;SDS011;38263;52.920;6.238;2023-10-09T00:42:00;22.55;;;8.68;;
52322;SDS011;38263;52.920;6.238;2023-10-09T00:44:27;19.50;;;8.95;;
52322;SDS011;38263;52.920;6.238;2023-10-09T00:47:05;25.65;;;10.10;;
52322;SDS011;38263;52.920;6.238;2023-10-09T00:52:32;20.73;;;9.20;;
52322;SDS011;38263;52.920;6.238;2023-10-09T00:55:08;20.33;;;9.75;;
52322;SDS011;38263;52.920;6.238;2023-10-09T00:57:54;23.00;;;10.82;;
52322;SDS011;38263;52.920;6.238;2023-10-09T01:00:31;20.92;;;10.35;;
52322;SDS011;38263;52.920;6.238;2023-10-09T01:02:57;27.60;;;10.75;;
52322;SDS011;38263;52.920;6.238;2023-10-09T01:05:35;27.55;;;11.85;;
52322;SDS011;38263;52.920;6.238;2023-10-09T01:08:02;27.88;;;12.30;;
52322;SDS011;38263;52.920;6.238;2023-10-09T01:10:46;26.05;;;11.43;;
52322;SDS011;38263;52.920;6.238;2023-10-09T01:13:25;28.65;;;12.75;;
52322;SDS011;38263;52.920;6.238;2023-10-09T01:15:53;24.02;;;12.23;;
52322;SDS011;38263;52.920;6.238;2023-10-09T01:18:24;28.27;;;12.57;;
52322;SDS011;38263;52.920;6.238;2023-10-09T01:20:57;27.25;;;13.30;;
52322;SDS011;38263;52.920;6.238;2023-10-09T01:23:22;31.58;;;14.13;;
52322;SDS011;38263;52.920;6.238;2023-10-09T01:25:48;31.27;;;13.30;;
52322;SDS011;38263;52.920;6.238;2023-10-09T01:28:15;27.80;;;14.43;;
52322;SDS011;38263;52.920;6.238;2023-10-09T01:30:41;33.15;;;15.85;;
52322;SDS011;38263;52.920;6.238;2023-10-09T01:33:08;37.58;;;16.95;;
52322;SDS011;38263;52.920;6.238;2023-10-09T01:35:47;36.28;;;15.48;;
52322;SDS011;38263;52.920;6.238;2023-10-09T01:38:17;32.38;;;16.20;;
52322;SDS011;38263;52.920;6.238;2023-10-09T01:40:43;35.20;;;16.17;;
52322;SDS011;38263;52.920;6.238;2023-10-09T01:43:10;35.65;;;16.15;;
52322;SDS011;38263;52.920;6.238;2023-10-09T01:45:36;38.55;;;16.58;;
52322;SDS011;38263;52.920;6.238;2023-10-09T01:48:11;38.42;;;18.02;;
52322;SDS011;38263;52.920;6.238;2023-10-09T01:50:39;34.05;;;17.23;;
52322;SDS011;38263;52.920;6.238;2023-10-09T01:53:07;36.63;;;17.38;;
52322;SDS011;38263;52.920;6.238;2023-10-09T01:55:33;39.75;;;18.88;;
52322;SDS011;38263;52.920;6.238;2023-10-09T01:58:06;32.78;;;18.05;;
52322;SDS011;38263;52.920;6.238;2023-10-09T02:00:50;45.42;;;20.50;;
52322;SDS011;38263;52.920;6.238;2023-10-09T02:03:26;37.78;;;18.45;;
52322;SDS011;38263;52.920;6.238;2023-10-09T02:05:54;50.05;;;21.83;;
52322;SDS011;38263;52.920;6.238;2023-10-09T02:08:25;51.13;;;21.92;;
52322;SDS011;38263;52.920;6.238;2023-10-09T02:11:01;52.08;;;22.58;;
52322;SDS011;38263;52.920;6.238;2023-10-09T02:13:27;47.60;;;22.92;;
52322;SDS011;38263;52.920;6.238;2023-10-09T02:15:59;47.63;;;22.58;;
52322;SDS011;38263;52.920;6.238;2023-10-09T02:18:41;51.33;;;23.05;;
52322;SDS011;38263;52.920;6.238;2023-10-09T02:21:21;51.10;;;24.30;;
52322;SDS011;38263;52.920;6.238;2023-10-09T02:24:04;48.40;;;23.42;;
52322;SDS011;38263;52.920;6.238;2023-10-09T02:26:32;57.25;;;24.88;;
52322;SDS011;38263;52.920;6.238;2023-10-09T02:29:04;52.55;;;25.73;;
52322;SDS011;38263;52.920;6.238;2023-10-09T02:31:40;55.10;;;26.40;;
52322;SDS011;38263;52.920;6.238;2023-10-09T02:34:06;56.70;;;26.17;;
52322;SDS011;38263;52.920;6.238;2023-10-09T02:36:36;57.90;;;25.10;;
52322;SDS011;38263;52.920;6.238;2023-10-09T02:39:09;55.03;;;26.10;;
52322;SDS011;38263;52.920;6.238;2023-10-09T02:41:48;55.90;;;26.17;;
52322;SDS011;38263;52.920;6.238;2023-10-09T02:44:20;60.83;;;27.40;;
52322;SDS011;38263;52.920;6.238;2023-10-09T02:46:56;54.80;;;25.05;;
52322;SDS011;38263;52.920;6.238;2023-10-09T02:49:23;61.10;;;27.17;;
52322;SDS011;38263;52.920;6.238;2023-10-09T02:51:49;59.33;;;26.92;;
52322;SDS011;38263;52.920;6.238;2023-10-09T02:54:18;56.65;;;27.42;;
52322;SDS011;38263;52.920;6.238;2023-10-09T02:57:00;52.60;;;25.55;;
52322;SDS011;38263;52.920;6.238;2023-10-09T02:59:41;64.93;;;29.63;;
52322;SDS011;38263;52.920;6.238;2023-10-09T03:02:09;62.35;;;27.75;;
52322;SDS011;38263;52.920;6.238;2023-10-09T03:04:36;62.40;;;28.20;;
52322;SDS011;38263;52.920;6.238;2023-10-09T03:07:04;57.22;;;25.77;;
52322;SDS011;38263;52.920;6.238;2023-10-09T03:09:30;60.65;;;27.60;;
52322;SDS011;38263;52.920;6.238;2023-10-09T03:11:58;63.65;;;28.98;;
52322;SDS011;38263;52.920;6.238;2023-10-09T03:14:28;65.85;;;28.75;;
52322;SDS011;38263;52.920;6.238;2023-10-09T03:16:55;63.10;;;27.75;;
52322;SDS011;38263;52.920;6.238;2023-10-09T03:19:22;63.85;;;28.23;;
52322;SDS011;38263;52.920;6.238;2023-10-09T03:21:50;61.65;;;28.05;;
52322;SDS011;38263;52.920;6.238;2023-10-09T03:24:16;66.22;;;28.83;;
52322;SDS011;38263;52.920;6.238;2023-10-09T03:26:44;66.47;;;29.95;;
52322;SDS011;38263;52.920;6.238;2023-10-09T03:29:11;62.03;;;29.02;;
52322;SDS011;38263;52.920;6.238;2023-10-09T03:31:37;68.82;;;28.77;;
52322;SDS011;38263;52.920;6.238;2023-10-09T03:34:03;59.28;;;27.40;;
52322;SDS011;38263;52.920;6.238;2023-10-09T03:36:29;61.13;;;28.70;;
52322;SDS011;38263;52.920;6.238;2023-10-09T03:38:59;67.70;;;30.52;;
52322;SDS011;38263;52.920;6.238;2023-10-09T03:41:25;58.58;;;29.48;;
52322;SDS011;38263;52.920;6.238;2023-10-09T03:43:51;65.18;;;29.13;;
52322;SDS011;38263;52.920;6.238;2023-10-09T03:46:19;61.28;;;30.30;;
52322;SDS011;38263;52.920;6.238;2023-10-09T03:48:57;68.85;;;29.38;;
52322;SDS011;38263;52.920;6.238;2023-10-09T03:51:25;61.83;;;29.13;;
52322;SDS011;38263;52.920;6.238;2023-10-09T03:53:52;62.97;;;28.83;;
52322;SDS011;38263;52.920;6.238;2023-10-09T03:56:18;66.75;;;29.15;;
52322;SDS011;38263;52.920;6.238;2023-10-09T03:58:46;64.05;;;27.73;;
52322;SDS011;38263;52.920;6.238;2023-10-09T04:01:15;66.72;;;30.23;;
52322;SDS011;38263;52.920;6.238;2023-10-09T04:03:52;66.20;;;28.52;;
52322;SDS011;38263;52.920;6.238;2023-10-09T04:06:20;65.53;;;29.70;;
52322;SDS011;38263;52.920;6.238;2023-10-09T04:08:47;68.35;;;28.55;;
52322;SDS011;38263;52.920;6.238;2023-10-09T04:11:14;58.50;;;28.00;;
52322;SDS011;38263;52.920;6.238;2023-10-09T04:13:48;73.32;;;29.30;;
52322;SDS011;38263;52.920;6.238;2023-10-09T04:16:24;64.93;;;29.05;;
52322;SDS011;38263;52.920;6.238;2023-10-09T04:18:57;63.25;;;28.33;;
52322;SDS011;38263;52.920;6.238;2023-10-09T04:21:23;62.00;;;28.27;;
52322;SDS011;38263;52.920;6.238;2023-10-09T04:23:54;59.30;;;27.13;;
52322;SDS011;38263;52.920;6.238;2023-10-09T04:26:39;56.35;;;26.65;;
52322;SDS011;38263;52.920;6.238;2023-10-09T04:29:13;56.50;;;27.67;;
52322;SDS011;38263;52.920;6.238;2023-10-09T04:31:54;57.55;;;27.90;;
52322;SDS011;38263;52.920;6.238;2023-10-09T04:34:22;54.78;;;25.55;;
52322;SDS011;38263;52.920;6.238;2023-10-09T04:36:49;52.35;;;24.70;;
52322;SDS011;38263;52.920;6.238;2023-10-09T04:39:21;51.80;;;25.73;;
52322;SDS011;38263;52.920;6.238;2023-10-09T04:41:56;57.42;;;25.70;;
52322;SDS011;38263;52.920;6.238;2023-10-09T04:44:44;50.97;;;24.38;;
52322;SDS011;38263;52.920;6.238;2023-10-09T04:47:28;58.70;;;23.48;;
52322;SDS011;38263;52.920;6.238;2023-10-09T04:50:14;46.95;;;23.00;;
52322;SDS011;38263;52.920;6.238;2023-10-09T04:53:03;48.13;;;23.38;;
52322;SDS011;38263;52.920;6.238;2023-10-09T04:55:41;47.55;;;22.52;;
52322;SDS011;38263;52.920;6.238;2023-10-09T04:58:22;44.60;;;23.42;;
52322;SDS011;38263;52.920;6.238;2023-10-09T05:00:50;51.88;;;21.77;;
52322;SDS011;38263;52.920;6.238;2023-10-09T05:03:22;47.95;;;21.90;;
52322;SDS011;38263;52.920;6.238;2023-10-09T05:06:17;40.78;;;20.25;;
52322;SDS011;38263;52.920;6.238;2023-10-09T05:09:06;41.88;;;21.45;;
52322;SDS011;38263;52.920;6.238;2023-10-09T05:11:38;40.65;;;21.40;;
52322;SDS011;38263;52.920;6.238;2023-10-09T05:14:21;41.83;;;20.83;;
52322;SDS011;38263;52.920;6.238;2023-10-09T05:17:04;40.65;;;18.90;;
52322;SDS011;38263;52.920;6.238;2023-10-09T05:19:34;39.35;;;19.25;;
52322;SDS011;38263;52.920;6.238;2023-10-09T05:22:19;37.15;;;19.08;;
52322;SDS011;38263;52.920;6.238;2023-10-09T05:24:58;37.95;;;17.55;;
52322;SDS011;38263;52.920;6.238;2023-10-09T05:27:23;34.13;;;17.15;;
52322;SDS011;38263;52.920;6.238;2023-10-09T05:30:09;37.25;;;16.98;;
52322;SDS011;38263;52.920;6.238;2023-10-09T05:32:49;31.20;;;15.65;;
52322;SDS011;38263;52.920;6.238;2023-10-09T05:35:20;34.25;;;15.38;;
52322;SDS011;38263;52.920;6.238;2023-10-09T05:40:26;28.20;;;13.57;;
52322;SDS011;38263;52.920;6.238;2023-10-09T05:42:56;27.45;;;13.38;;
52322;SDS011;38263;52.920;6.238;2023-10-09T05:45:27;33.60;;;13.00;;
52322;SDS011;38263;52.920;6.238;2023-10-09T05:48:12;23.00;;;12.15;;
52322;SDS011;38263;52.920;6.238;2023-10-09T05:50:37;26.92;;;12.15;;
52322;SDS011;38263;52.920;6.238;2023-10-09T05:53:23;22.77;;;11.13;;
52322;SDS011;38263;52.920;6.238;2023-10-09T05:56:08;24.05;;;10.70;;
52322;SDS011;38263;52.920;6.238;2023-10-09T05:58:52;22.38;;;9.63;;
52322;SDS011;38263;52.920;6.238;2023-10-09T06:01:38;20.05;;;10.38;;
52322;SDS011;38263;52.920;6.238;2023-10-09T06:04:23;21.58;;;9.10;;
52322;SDS011;38263;52.920;6.238;2023-10-09T06:07:08;21.05;;;9.13;;
52322;SDS011;38263;52.920;6.238;2023-10-09T06:09:38;19.02;;;8.50;;
52322;SDS011;38263;52.920;6.238;2023-10-09T06:12:23;15.17;;;9.47;;
52322;SDS011;38263;52.920;6.238;2023-10-09T06:14:58;26.83;;;10.13;;
52322;SDS011;38263;52.920;6.238;2023-10-09T06:17:44;22.23;;;9.52;;
52322;SDS011;38263;52.920;6.238;2023-10-09T06:20:15;18.90;;;8.65;;
52322;SDS011;38263;52.920;6.238;2023-10-09T06:23:00;22.35;;;8.55;;
52322;SDS011;38263;52.920;6.238;2023-10-09T06:25:41;20.75;;;8.60;;
52322;SDS011;38263;52.920;6.238;2023-10-09T06:28:16;20.92;;;8.38;;
52322;SDS011;38263;52.920;6.238;2023-10-09T06:30:44;20.73;;;9.02;;
52322;SDS011;38263;52.920;6.238;2023-10-09T06:33:12;20.55;;;9.68;;
52322;SDS011;38263;52.920;6.238;2023-10-09T06:35:44;20.42;;;8.27;;
52322;SDS011;38263;52.920;6.238;2023-10-09T06:38:18;20.35;;;9.30;;
52322;SDS011;38263;52.920;6.238;2023-10-09T06:40:48;19.27;;;8.55;;
52322;SDS011;38263;52.920;6.238;2023-10-09T06:43:21;19.98;;;8.18;;
52322;SDS011;38263;52.920;6.238;2023-10-09T06:45:51;19.58;;;8.73;;
52322;SDS011;38263;52.920;6.238;2023-10-09T06:48:26;19.25;;;9.10;;
52322;SDS011;38263;52.920;6.238;2023-10-09T06:51:05;22.90;;;10.30;;
52322;SDS011;38263;52.920;6.238;2023-10-09T06:53:59;20.42;;;9.05;;
52322;SDS011;38263;52.920;6.238;2023-10-09T06:56:31;21.17;;;8.50;;
52322;SDS011;38263;52.920;6.238;2023-10-09T07:01:26;21.65;;;8.63;;
52322;SDS011;38263;52.920;6.238;2023-10-09T07:03:52;22.73;;;9.38;;
52322;SDS011;38263;52.920;6.238;2023-10-09T07:06:18;16.30;;;8.75;;
52322;SDS011;38263;52.920;6.238;2023-10-09T07:09:10;20.20;;;8.35;;
52322;SDS011;38263;52.920;6.238;2023-10-09T07:11:40;16.38;;;8.05;;
52322;SDS011;38263;52.920;6.238;2023-10-09T07:14:14;19.80;;;8.93;;
52322;SDS011;38263;52.920;6.238;2023-10-09T07:16:56;18.85;;;8.48;;
52322;SDS011;38263;52.920;6.238;2023-10-09T07:19:40;24.40;;;9.35;;
52322;SDS011;38263;52.920;6.238;2023-10-09T07:22:07;20.50;;;8.50;;
52322;SDS011;38263;52.920;6.238;2023-10-09T07:24:49;20.90;;;8.40;;
52322;SDS011;38263;52.920;6.238;2023-10-09T07:27:31;23.35;;;8.88;;
52322;SDS011;38263;52.920;6.238;2023-10-09T07:30:10;17.02;;;8.02;;
52322;SDS011;38263;52.920;6.238;2023-10-09T07:32:56;18.85;;;8.18;;
52322;SDS011;38263;52.920;6.238;2023-10-09T07:35:36;23.10;;;8.40;;
52322;SDS011;38263;52.920;6.238;2023-10-09T07:38:09;19.50;;;8.82;;
52322;SDS011;38263;52.920;6.238;2023-10-09T07:40:36;22.20;;;8.27;;
52322;SDS011;38263;52.920;6.238;2023-10-09T07:43:20;18.23;;;9.00;;
52322;SDS011;38263;52.920;6.238;2023-10-09T07:45:51;21.48;;;8.65;;
52322;SDS011;38263;52.920;6.238;2023-10-09T07:48:26;21.50;;;8.38;;
52322;SDS011;38263;52.920;6.238;2023-10-09T07:50:54;22.25;;;8.73;;
52322;SDS011;38263;52.920;6.238;2023-10-09T07:53:23;17.58;;;9.20;;
52322;SDS011;38263;52.920;6.238;2023-10-09T07:55:55;18.67;;;9.70;;
52322;SDS011;38263;52.920;6.238;2023-10-09T07:58:31;22.20;;;9.10;;
52322;SDS011;38263;52.920;6.238;2023-10-09T08:00:58;23.67;;;9.50;;
52322;SDS011;38263;52.920;6.238;2023-10-09T08:06:00;17.08;;;7.80;;
52322;SDS011;38263;52.920;6.238;2023-10-09T08:08:52;22.02;;;7.95;;
52322;SDS011;38263;52.920;6.238;2023-10-09T08:11:38;22.60;;;7.95;;
52322;SDS011;38263;52.920;6.238;2023-10-09T08:14:10;23.00;;;8.50;;
52322;SDS011;38263;52.920;6.238;2023-10-09T08:16:45;22.08;;;8.63;;
52322;SDS011;38263;52.920;6.238;2023-10-09T08:19:11;25.30;;;9.25;;
52322;SDS011;38263;52.920;6.238;2023-10-09T08:21:56;23.85;;;8.85;;
52322;SDS011;38263;52.920;6.238;2023-10-09T08:24:41;21.27;;;7.80;;
52322;SDS011;38263;52.920;6.238;2023-10-09T08:27:07;24.70;;;8.80;;
52322;SDS011;38263;52.920;6.238;2023-10-09T08:29:52;28.42;;;9.45;;
52322;SDS011;38263;52.920;6.238;2023-10-09T08:32:38;31.95;;;10.27;;
52322;SDS011;38263;52.920;6.238;2023-10-09T08:35:04;19.95;;;7.40;;
52322;SDS011;38263;52.920;6.238;2023-10-09T08:37:44;27.88;;;9.65;;
52322;SDS011;38263;52.920;6.238;2023-10-09T08:40:13;16.63;;;8.18;;
52322;SDS011;38263;52.920;6.238;2023-10-09T08:42:38;19.73;;;8.90;;
52322;SDS011;38263;52.920;6.238;2023-10-09T08:45:04;30.08;;;8.63;;
52322;SDS011;38263;52.920;6.238;2023-10-09T08:47:32;18.88;;;8.05;;
52322;SDS011;38263;52.920;6.238;2023-10-09T08:50:00;25.33;;;8.10;;
52322;SDS011;38263;52.920;6.238;2023-10-09T08:52:26;18.13;;;8.68;;
52322;SDS011;38263;52.920;6.238;2023-10-09T08:54:52;22.63;;;8.35;;
52322;SDS011;38263;52.920;6.238;2023-10-09T08:57:18;23.55;;;7.65;;
52322;SDS011;38263;52.920;6.238;2023-10-09T08:59:44;23.42;;;7.68;;
52322;SDS011;38263;52.920;6.238;2023-10-09T09:02:10;25.30;;;8.57;;
52322;SDS011;38263;52.920;6.238;2023-10-09T09:04:42;22.10;;;7.35;;
52322;SDS011;38263;52.920;6.238;2023-10-09T09:07:26;19.90;;;8.32;;
52322;SDS011;38263;52.920;6.238;2023-10-09T09:09:59;25.20;;;8.40;;
52322;SDS011;38263;52.920;6.238;2023-10-09T09:12:47;23.13;;;8.55;;
52322;SDS011;38263;52.920;6.238;2023-10-09T09:15:18;22.65;;;8.18;;
52322;SDS011;38263;52.920;6.238;2023-10-09T09:17:44;25.77;;;8.05;;
52322;SDS011;38263;52.920;6.238;2023-10-09T09:20:20;24.08;;;7.82;;
52322;SDS011;38263;52.920;6.238;2023-10-09T09:22:52;25.70;;;7.20;;
52322;SDS011;38263;52.920;6.238;2023-10-09T09:25:21;28.48;;;8.07;;
52322;SDS011;38263;52.920;6.238;2023-10-09T09:27:49;19.48;;;8.02;;
52322;SDS011;38263;52.920;6.238;2023-10-09T09:30:27;25.48;;;8.57;;
52322;SDS011;38263;52.920;6.238;2023-10-09T09:35:55;22.55;;;8.13;;
52322;SDS011;38263;52.920;6.238;2023-10-09T09:38:27;22.27;;;8.50;;
52322;SDS011;38263;52.920;6.238;2023-10-09T09:40:55;20.13;;;8.00;;
52322;SDS011;38263;52.920;6.238;2023-10-09T09:43:22;27.50;;;8.70;;
52322;SDS011;38263;52.920;6.238;2023-10-09T09:45:48;21.25;;;8.88;;
52322;SDS011;38263;52.920;6.238;2023-10-09T09:48:18;21.27;;;8.07;;
52322;SDS011;38263;52.920;6.238;2023-10-09T09:50:44;21.63;;;8.73;;
52322;SDS011;38263;52.920;6.238;2023-10-09T09:53:14;23.48;;;8.27;;
52322;SDS011;38263;52.920;6.238;2023-10-09T09:55:50;24.30;;;10.27;;
52322;SDS011;38263;52.920;6.238;2023-10-09T09:58:21;25.60;;;7.82;;
52322;SDS011;38263;52.920;6.238;2023-10-09T10:01:10;27.38;;;9.43;;
52322;SDS011;38263;52.920;6.238;2023-10-09T10:03:44;21.58;;;8.77;;
52322;SDS011;38263;52.920;6.238;2023-10-09T10:06:14;24.48;;;9.63;;
52322;SDS011;38263;52.920;6.238;2023-10-09T10:08:44;21.33;;;8.07;;
52322;SDS011;38263;52.920;6.238;2023-10-09T10:14:09;20.05;;;7.68;;
52322;SDS011;38263;52.920;6.238;2023-10-09T10:22:28;20.02;;;7.57;;
52322;SDS011;38263;52.920;6.238;2023-10-09T10:24:55;19.42;;;7.45;;
52322;SDS011;38263;52.920;6.238;2023-10-09T10:27:22;16.67;;;6.82;;
52322;SDS011;38263;52.920;6.238;2023-10-09T10:32:54;20.60;;;7.70;;
52322;SDS011;38263;52.920;6.238;2023-10-09T10:35:22;20.45;;;7.47;;
52322;SDS011;38263;52.920;6.238;2023-10-09T10:37:57;18.25;;;6.93;;
52322;SDS011;38263;52.920;6.238;2023-10-09T10:40:33;18.65;;;7.68;;
52322;SDS011;38263;52.920;6.238;2023-10-09T10:43:17;18.23;;;7.30;;
52322;SDS011;38263;52.920;6.238;2023-10-09T10:46:07;19.48;;;7.97;;
52322;SDS011;38263;52.920;6.238;2023-10-09T10:48:49;25.95;;;7.90;;
52322;SDS011;38263;52.920;6.238;2023-10-09T10:51:24;20.77;;;8.80;;
52322;SDS011;38263;52.920;6.238;2023-10-09T10:54:05;16.90;;;8.45;;
52322;SDS011;38263;52.920;6.238;2023-10-09T10:56:50;14.80;;;7.25;;
52322;SDS011;38263;52.920;6.238;2023-10-09T10:59:19;20.02;;;7.53;;
52322;SDS011;38263;52.920;6.238;2023-10-09T11:01:48;19.85;;;7.38;;
52322;SDS011;38263;52.920;6.238;2023-10-09T11:04:39;23.65;;;8.10;;
52322;SDS011;38263;52.920;6.238;2023-10-09T11:07:08;19.02;;;7.15;;
52322;SDS011;38263;52.920;6.238;2023-10-09T11:09:51;22.88;;;7.93;;
52322;SDS011;38263;52.920;6.238;2023-10-09T11:15:10;15.35;;;6.45;;
52322;SDS011;38263;52.920;6.238;2023-10-09T11:20:30;18.05;;;6.70;;
52322;SDS011;38263;52.920;6.238;2023-10-09T11:22:58;21.25;;;6.80;;
52322;SDS011;38263;52.920;6.238;2023-10-09T11:25:37;17.85;;;6.18;;
52322;SDS011;38263;52.920;6.238;2023-10-09T11:28:18;16.02;;;5.70;;
52322;SDS011;38263;52.920;6.238;2023-10-09T11:31:15;16.83;;;5.38;;
52322;SDS011;38263;52.920;6.238;2023-10-09T11:33:47;15.70;;;5.88;;
52322;SDS011;38263;52.920;6.238;2023-10-09T11:36:16;13.93;;;5.25;;
52322;SDS011;38263;52.920;6.238;2023-10-09T11:39:00;11.18;;;5.20;;
52322;SDS011;38263;52.920;6.238;2023-10-09T11:41:41;18.17;;;6.10;;
52322;SDS011;38263;52.920;6.238;2023-10-09T11:44:09;17.23;;;5.25;;
52322;SDS011;38263;52.920;6.238;2023-10-09T11:49:53;14.25;;;5.95;;
52322;SDS011;38263;52.920;6.238;2023-10-09T11:52:28;18.52;;;6.07;;
52322;SDS011;38263;52.920;6.238;2023-10-09T11:55:01;13.82;;;5.50;;
52322;SDS011;38263;52.920;6.238;2023-10-09T11:57:28;12.85;;;4.75;;
52322;SDS011;38263;52.920;6.238;2023-10-09T11:59:58;13.57;;;5.13;;
52322;SDS011;38263;52.920;6.238;2023-10-09T12:02:25;12.63;;;4.78;;
52322;SDS011;38263;52.920;6.238;2023-10-09T12:04:51;10.77;;;3.60;;
52322;SDS011;38263;52.920;6.238;2023-10-09T12:07:16;12.18;;;4.28;;
52322;SDS011;38263;52.920;6.238;2023-10-09T12:09:45;10.20;;;3.92;;
52322;SDS011;38263;52.920;6.238;2023-10-09T12:12:12;19.20;;;4.72;;
52322;SDS011;38263;52.920;6.238;2023-10-09T12:14:38;11.95;;;4.28;;
52322;SDS011;38263;52.920;6.238;2023-10-09T12:17:05;15.85;;;4.05;;
52322;SDS011;38263;52.920;6.238;2023-10-09T12:19:34;12.15;;;4.25;;
52322;SDS011;38263;52.920;6.238;2023-10-09T12:22:01;12.57;;;4.63;;
52322;SDS011;38263;52.920;6.238;2023-10-09T12:24:29;14.95;;;4.68;;
52322;SDS011;38263;52.920;6.238;2023-10-09T12:26:55;14.00;;;3.63;;
52322;SDS011;38263;52.920;6.238;2023-10-09T12:29:21;10.77;;;3.33;;
52322;SDS011;38263;52.920;6.238;2023-10-09T12:31:48;14.35;;;4.30;;
52322;SDS011;38263;52.920;6.238;2023-10-09T12:34:23;13.02;;;4.63;;
52322;SDS011;38263;52.920;6.238;2023-10-09T12:36:51;13.77;;;3.45;;
52322;SDS011;38263;52.920;6.238;2023-10-09T12:39:17;12.82;;;4.03;;
52322;SDS011;38263;52.920;6.238;2023-10-09T12:41:44;13.65;;;4.20;;
52322;SDS011;38263;52.920;6.238;2023-10-09T12:44:10;9.77;;;2.97;;
52322;SDS011;38263;52.920;6.238;2023-10-09T12:46:40;11.07;;;3.33;;
52322;SDS011;38263;52.920;6.238;2023-10-09T12:49:06;9.63;;;3.40;;
52322;SDS011;38263;52.920;6.238;2023-10-09T12:51:32;9.10;;;3.72;;
52322;SDS011;38263;52.920;6.238;2023-10-09T12:53:58;7.90;;;3.58;;
52322;SDS011;38263;52.920;6.238;2023-10-09T12:56:26;9.98;;;4.22;;
52322;SDS011;38263;52.920;6.238;2023-10-09T12:59:00;10.38;;;3.42;;
52322;SDS011;38263;52.920;6.238;2023-10-09T13:01:27;11.38;;;3.30;;
52322;SDS011;38263;52.920;6.238;2023-10-09T13:04:00;11.65;;;3.53;;
52322;SDS011;38263;52.920;6.238;2023-10-09T13:06:26;21.23;;;4.28;;
52322;SDS011;38263;52.920;6.238;2023-10-09T13:08:52;9.55;;;3.50;;
52322;SDS011;38263;52.920;6.238;2023-10-09T13:11:21;13.35;;;3.85;;
52322;SDS011;38263;52.920;6.238;2023-10-09T13:13:47;9.07;;;3.10;;
52322;SDS011;38263;52.920;6.238;2023-10-09T13:16:22;18.38;;;4.13;;
52322;SDS011;38263;52.920;6.238;2023-10-09T13:18:55;13.88;;;2.85;;
52322;SDS011;38263;52.920;6.238;2023-10-09T13:21:25;7.25;;;3.38;;
52322;SDS011;38263;52.920;6.238;2023-10-09T13:23:52;11.13;;;3.00;;
52322;SDS011;38263;52.920;6.238;2023-10-09T13:26:20;15.63;;;3.83;;
52322;SDS011;38263;52.920;6.238;2023-10-09T13:28:58;16.27;;;3.95;;
52322;SDS011;38263;52.920;6.238;2023-10-09T13:31:24;10.57;;;3.35;;
52322;SDS011;38263;52.920;6.238;2023-10-09T13:33:51;11.20;;;2.92;;
52322;SDS011;38263;52.920;6.238;2023-10-09T13:36:23;11.13;;;3.45;;
52322;SDS011;38263;52.920;6.238;2023-10-09T13:38:56;13.75;;;3.13;;
52322;SDS011;38263;52.920;6.238;2023-10-09T13:41:44;9.60;;;3.15;;
52322;SDS011;38263;52.920;6.238;2023-10-09T13:44:11;11.07;;;2.97;;
52322;SDS011;38263;52.920;6.238;2023-10-09T13:46:37;11.30;;;2.80;;
52322;SDS011;38263;52.920;6.238;2023-10-09T13:49:06;6.20;;;2.47;;
52322;SDS011;38263;52.920;6.238;2023-10-09T13:51:39;10.20;;;2.85;;
52322;SDS011;38263;52.920;6.238;2023-10-09T13:54:15;11.05;;;3.00;;
52322;SDS011;38263;52.920;6.238;2023-10-09T13:56:48;8.35;;;2.72;;
52322;SDS011;38263;52.920;6.238;2023-10-09T13:59:18;11.23;;;3.00;;
52322;SDS011;38263;52.920;6.238;2023-10-09T14:01:46;8.50;;;3.20;;
52322;SDS011;38263;52.920;6.238;2023-10-09T14:04:13;12.77;;;2.90;;
52322;SDS011;38263;52.920;6.238;2023-10-09T14:06:43;8.85;;;2.67;;
52322;SDS011;38263;52.920;6.238;2023-10-09T14:09:09;11.30;;;2.92;;
52322;SDS011;38263;52.920;6.238;2023-10-09T14:11:36;6.70;;;2.53;;
52322;SDS011;38263;52.920;6.238;2023-10-09T14:14:09;10.75;;;3.10;;
52322;SDS011;38263;52.920;6.238;2023-10-09T14:16:36;6.95;;;2.50;;
52322;SDS011;38263;52.920;6.238;2023-10-09T14:19:07;8.27;;;2.55;;
52322;SDS011;38263;52.920;6.238;2023-10-09T14:21:38;10.15;;;3.03;;
52322;SDS011;38263;52.920;6.238;2023-10-09T14:24:05;9.65;;;2.83;;
52322;SDS011;38263;52.920;6.238;2023-10-09T14:26:40;6.68;;;2.83;;
52322;SDS011;38263;52.920;6.238;2023-10-09T14:29:06;9.35;;;3.42;;
52322;SDS011;38263;52.920;6.238;2023-10-09T14:31:32;10.43;;;3.10;;
52322;SDS011;38263;52.920;6.238;2023-10-09T14:34:04;11.10;;;3.28;;
52322;SDS011;38263;52.920;6.238;2023-10-09T14:36:30;12.30;;;3.63;;
52322;SDS011;38263;52.920;6.238;2023-10-09T14:38:58;9.20;;;3.17;;
52322;SDS011;38263;52.920;6.238;2023-10-09T14:41:29;15.05;;;3.72;;
52322;SDS011;38263;52.920;6.238;2023-10-09T14:43:58;12.45;;;3.95;;
52322;SDS011;38263;52.920;6.238;2023-10-09T14:46:24;10.00;;;3.05;;
52322;SDS011;38263;52.920;6.238;2023-10-09T14:48:53;10.85;;;3.30;;
52322;SDS011;38263;52.920;6.238;2023-10-09T14:51:20;14.55;;;3.28;;
52322;SDS011;38263;52.920;6.238;2023-10-09T14:53:52;14.05;;;2.88;;
52322;SDS011;38263;52.920;6.238;2023-10-09T14:56:28;12.13;;;3.38;;
52322;SDS011;38263;52.920;6.238;2023-10-09T14:58:57;12.45;;;4.47;;
52322;SDS011;38263;52.920;6.238;2023-10-09T15:01:27;9.35;;;2.53;;
52322;SDS011;38263;52.920;6.238;2023-10-09T15:03:57;7.60;;;1.90;;
52322;SDS011;38263;52.920;6.238;2023-10-09T15:06:26;9.98;;;1.83;;
52322;SDS011;38263;52.920;6.238;2023-10-09T15:08:53;6.18;;;2.10;;
52322;SDS011;38263;52.920;6.238;2023-10-09T15:11:26;11.45;;;1.90;;
52322;SDS011;38263;52.920;6.238;2023-10-09T15:13:53;7.80;;;2.50;;
52322;SDS011;38263;52.920;6.238;2023-10-09T15:16:21;9.55;;;2.60;;
52322;SDS011;38263;52.920;6.238;2023-10-09T15:18:47;9.02;;;2.20;;
52322;SDS011;38263;52.920;6.238;2023-10-09T15:21:17;7.50;;;2.22;;
52322;SDS011;38263;52.920;6.238;2023-10-09T15:23:55;8.55;;;3.03;;
52322;SDS011;38263;52.920;6.238;2023-10-09T15:26:21;7.10;;;2.20;;
52322;SDS011;38263;52.920;6.238;2023-10-09T15:28:49;7.70;;;2.55;;
52322;SDS011;38263;52.920;6.238;2023-10-09T15:31:15;7.97;;;2.05;;
52322;SDS011;38263;52.920;6.238;2023-10-09T15:33:41;6.97;;;1.80;;
52322;SDS011;38263;52.920;6.238;2023-10-09T15:36:15;7.68;;;1.70;;